sensor_id;sensor_type;location;lat;lon;timestamp;pressure;altitude;pressure_sealevel;temperature;humidity
16030;BME280;34770;49.272;11.070;2023-02-26T00:01:31;97138.47;;;-1.84;100.00
16030;BME280;34770;49.272;11.070;2023-02-26T00:03:59;97150.84;;;-1.67;100.00
16030;BME280;34770;49.272;11.070;2023-02-26T00:06:26;97148.78;;;-1.56;100.00
16030;BME280;34770;49.272;11.070;2023-02-26T00:08:52;97138.63;;;-1.51;100.00
16030;BME280;34770;49.272;11.070;2023-02-26T00:11:18;97143.56;;;-1.53;100.00
16030;BME280;34770;49.272;11.070;2023-02-26T00:13:44;97143.13;;;-1.60;100.00
16030;BME280;34770;49.272;11.070;2023-02-26T00:16:32;97152.91;;;-1.59;100.00
16030;BME280;34770;49.272;11.070;2023-02-26T00:19:01;97153.97;;;-1.55;100.00
16030;BME280;34770;49.272;11.070;2023-02-26T00:21:28;97153.50;;;-1.62;100.00
16030;BME280;34770;49.272;11.070;2023-02-26T00:23:55;64408.81;;;-148.56;100.00
16030;BME280;34770;49.272;11.070;2023-02-26T00:26:21;64408.81;;;-148.56;100.00
16030;BME280;34770;49.272;11.070;2023-02-26T00:28:47;64408.81;;;-148.56;100.00
16030;BME280;34770;49.272;11.070;2023-02-26T00:31:15;64408.81;;;-148.56;100.00
16030;BME280;34770;49.272;11.070;2023-02-26T00:33:41;64408.81;;;-148.56;100.00
16030;BME280;34770;49.272;11.070;2023-02-26T00:39:19;97173.31;;;-1.75;100.00
16030;BME280;34770;49.272;11.070;2023-02-26T00:41:51;64408.81;;;-148.56;100.00
16030;BME280;34770;49.272;11.070;2023-02-26T00:44:17;97151.75;;;-1.77;100.00
16030;BME280;34770;49.272;11.070;2023-02-26T00:46:49;97171.97;;;-1.78;100.00
16030;BME280;34770;49.272;11.070;2023-02-26T00:49:39;64408.81;;;-148.56;100.00
16030;BME280;34770;49.272;11.070;2023-02-26T00:52:13;64408.81;;;-148.56;100.00
16030;BME280;34770;49.272;11.070;2023-02-26T00:54:40;64408.81;;;-148.56;100.00
16030;BME280;34770;49.272;11.070;2023-02-26T00:57:05;64408.81;;;-148.56;100.00
16030;BME280;34770;49.272;11.070;2023-02-26T00:59:31;64408.81;;;-148.56;100.00
16030;BME280;34770;49.272;11.070;2023-02-26T01:01:56;64408.81;;;-148.56;100.00
16030;BME280;34770;49.272;11.070;2023-02-26T01:04:23;64408.81;;;-148.56;100.00
16030;BME280;34770;49.272;11.070;2023-02-26T01:06:54;64408.81;;;-148.56;100.00
16030;BME280;34770;49.272;11.070;2023-02-26T01:09:25;64408.81;;;-148.56;100.00
16030;BME280;34770;49.272;11.070;2023-02-26T01:11:53;64408.81;;;-148.56;100.00
16030;BME280;34770;49.272;11.070;2023-02-26T01:14:19;64408.81;;;-148.56;100.00
16030;BME280;34770;49.272;11.070;2023-02-26T01:19:46;64408.81;;;-148.56;100.00
16030;BME280;34770;49.272;11.070;2023-02-26T01:24:53;64408.81;;;-148.56;100.00
16030;BME280;34770;49.272;11.070;2023-02-26T01:27:20;64408.81;;;-148.56;100.00
16030;BME280;34770;49.272;11.070;2023-02-26T01:29:45;64408.81;;;-148.56;100.00
16030;BME280;34770;49.272;11.070;2023-02-26T01:32:18;64408.81;;;-148.56;100.00
16030;BME280;34770;49.272;11.070;2023-02-26T01:34:53;64408.81;;;-148.56;100.00
16030;BME280;34770;49.272;11.070;2023-02-26T01:42:48;64408.81;;;-148.56;100.00
16030;BME280;34770;49.272;11.070;2023-02-26T01:45:30;64408.81;;;-148.56;100.00
16030;BME280;34770;49.272;11.070;2023-02-26T01:48:05;64408.81;;;-148.56;100.00
16030;BME280;34770;49.272;11.070;2023-02-26T01:50:34;64408.81;;;-148.56;100.00
16030;BME280;34770;49.272;11.070;2023-02-26T01:53:20;64408.81;;;-148.56;100.00
16030;BME280;34770;49.272;11.070;2023-02-26T01:55:49;64408.81;;;-148.56;100.00
16030;BME280;34770;49.272;11.070;2023-02-26T01:58:16;64408.81;;;-148.56;100.00
16030;BME280;34770;49.272;11.070;2023-02-26T02:00:43;64408.81;;;-148.56;100.00
16030;BME280;34770;49.272;11.070;2023-02-26T02:03:09;64408.81;;;-148.56;100.00
16030;BME280;34770;49.272;11.070;2023-02-26T02:05:41;64408.81;;;-148.56;100.00
16030;BME280;34770;49.272;11.070;2023-02-26T02:08:08;64408.81;;;-148.56;100.00
16030;BME280;34770;49.272;11.070;2023-02-26T02:10:33;64408.81;;;-148.56;100.00
16030;BME280;34770;49.272;11.070;2023-02-26T02:13:09;64408.81;;;-148.56;100.00
16030;BME280;34770;49.272;11.070;2023-02-26T02:15:44;64408.81;;;-148.56;100.00
16030;BME280;34770;49.272;11.070;2023-02-26T02:31:59;64408.81;;;-148.56;100.00
16030;BME280;34770;49.272;11.070;2023-02-26T02:34:40;64408.81;;;-148.56;100.00
16030;BME280;34770;49.272;11.070;2023-02-26T02:39:49;64408.81;;;-148.56;100.00
16030;BME280;34770;49.272;11.070;2023-02-26T02:42:46;64408.81;;;-148.56;100.00
16030;BME280;34770;49.272;11.070;2023-02-26T02:45:19;64408.81;;;-148.56;100.00
16030;BME280;34770;49.272;11.070;2023-02-26T02:47:51;64408.81;;;-148.56;100.00
16030;BME280;34770;49.272;11.070;2023-02-26T02:50:29;64408.81;;;-148.56;100.00
16030;BME280;34770;49.272;11.070;2023-02-26T02:53:01;64408.81;;;-148.56;100.00
16030;BME280;34770;49.272;11.070;2023-02-26T02:55:32;64408.81;;;-148.56;100.00
16030;BME280;34770;49.272;11.070;2023-02-26T02:58:10;64408.81;;;-148.56;100.00
16030;BME280;34770;49.272;11.070;2023-02-26T03:00:46;64408.81;;;-148.56;100.00
16030;BME280;34770;49.272;11.070;2023-02-26T03:06:44;64408.81;;;-148.56;100.00
16030;BME280;34770;49.272;11.070;2023-02-26T03:09:15;64408.81;;;-148.56;100.00
16030;BME280;34770;49.272;11.070;2023-02-26T03:11:41;64408.81;;;-148.56;100.00
16030;BME280;34770;49.272;11.070;2023-02-26T03:14:07;64408.81;;;-148.56;100.00
16030;BME280;34770;49.272;11.070;2023-02-26T03:17:00;64408.81;;;-148.56;100.00
16030;BME280;34770;49.272;11.070;2023-02-26T03:22:45;64408.81;;;-148.56;100.00
16030;BME280;34770;49.272;11.070;2023-02-26T03:25:25;64408.81;;;-148.56;100.00
16030;BME280;34770;49.272;11.070;2023-02-26T03:28:12;64408.81;;;-148.56;100.00
16030;BME280;34770;49.272;11.070;2023-02-26T03:30:45;64408.81;;;-148.56;100.00
16030;BME280;34770;49.272;11.070;2023-02-26T03:33:21;64408.81;;;-148.56;100.00
16030;BME280;34770;49.272;11.070;2023-02-26T03:35:57;64408.81;;;-148.56;100.00
16030;BME280;34770;49.272;11.070;2023-02-26T03:39:00;64408.81;;;-148.56;100.00
16030;BME280;34770;49.272;11.070;2023-02-26T03:41:35;64408.81;;;-148.56;100.00
16030;BME280;34770;49.272;11.070;2023-02-26T03:44:07;64408.81;;;-148.56;100.00
16030;BME280;34770;49.272;11.070;2023-02-26T03:46:43;64408.81;;;-148.56;100.00
16030;BME280;34770;49.272;11.070;2023-02-26T03:49:14;64408.81;;;-148.56;100.00
16030;BME280;34770;49.272;11.070;2023-02-26T03:51:43;64408.81;;;-148.56;100.00
16030;BME280;34770;49.272;11.070;2023-02-26T03:54:19;64408.81;;;-148.56;100.00
16030;BME280;34770;49.272;11.070;2023-02-26T03:56:46;64408.81;;;-148.56;100.00
16030;BME280;34770;49.272;11.070;2023-02-26T03:59:14;64408.81;;;-148.56;100.00
16030;BME280;34770;49.272;11.070;2023-02-26T04:04:18;64408.81;;;-148.56;100.00
16030;BME280;34770;49.272;11.070;2023-02-26T04:06:45;64408.81;;;-148.56;100.00
16030;BME280;34770;49.272;11.070;2023-02-26T04:09:11;64408.81;;;-148.56;100.00
16030;BME280;34770;49.272;11.070;2023-02-26T04:11:37;64408.81;;;-148.56;100.00
16030;BME280;34770;49.272;11.070;2023-02-26T04:14:03;64408.81;;;-148.56;100.00
16030;BME280;34770;49.272;11.070;2023-02-26T04:16:29;64408.81;;;-148.56;100.00
16030;BME280;34770;49.272;11.070;2023-02-26T04:18:55;97171.97;;;-1.78;100.00
16030;BME280;34770;49.272;11.070;2023-02-26T04:21:21;97324.63;;;-3.73;100.00
16030;BME280;34770;49.272;11.070;2023-02-26T04:23:47;97315.88;;;-3.70;100.00
16030;BME280;34770;49.272;11.070;2023-02-26T04:26:13;97324.34;;;-3.77;100.00
16030;BME280;34770;49.272;11.070;2023-02-26T04:28:39;97319.41;;;-3.54;100.00
16030;BME280;34770;49.272;11.070;2023-02-26T04:31:06;97332.47;;;-3.56;100.00
16030;BME280;34770;49.272;11.070;2023-02-26T04:33:32;97327.00;;;-3.46;100.00
16030;BME280;34770;49.272;11.070;2023-02-26T04:35:59;97339.50;;;-3.40;100.00
16030;BME280;34770;49.272;11.070;2023-02-26T04:38:25;97337.31;;;-3.32;100.00
16030;BME280;34770;49.272;11.070;2023-02-26T04:40:50;97335.97;;;-3.40;100.00
16030;BME280;34770;49.272;11.070;2023-02-26T04:43:16;97321.81;;;-3.37;100.00
16030;BME280;34770;49.272;11.070;2023-02-26T04:45:45;97329.69;;;-3.30;100.00
16030;BME280;34770;49.272;11.070;2023-02-26T04:48:11;97338.94;;;-3.31;100.00
16030;BME280;34770;49.272;11.070;2023-02-26T04:50:37;97351.75;;;-3.27;100.00
16030;BME280;34770;49.272;11.070;2023-02-26T04:53:03;97339.47;;;-3.14;100.00
16030;BME280;34770;49.272;11.070;2023-02-26T04:55:28;97330.47;;;-3.19;100.00
16030;BME280;34770;49.272;11.070;2023-02-26T04:57:54;97351.97;;;-3.18;100.00
16030;BME280;34770;49.272;11.070;2023-02-26T05:00:19;97343.53;;;-3.16;100.00
16030;BME280;34770;49.272;11.070;2023-02-26T05:02:45;97351.97;;;-3.08;100.00
16030;BME280;34770;49.272;11.070;2023-02-26T05:05:10;97361.81;;;-3.27;100.00
16030;BME280;34770;49.272;11.070;2023-02-26T05:07:36;97357.41;;;-3.13;100.00
16030;BME280;34770;49.272;11.070;2023-02-26T05:10:05;97363.44;;;-3.26;100.00
16030;BME280;34770;49.272;11.070;2023-02-26T05:12:30;97357.13;;;-3.16;100.00
16030;BME280;34770;49.272;11.070;2023-02-26T05:14:56;97361.00;;;-3.28;100.00
16030;BME280;34770;49.272;11.070;2023-02-26T05:17:21;97365.06;;;-3.25;100.00
16030;BME280;34770;49.272;11.070;2023-02-26T05:19:47;97371.59;;;-3.21;100.00
16030;BME280;34770;49.272;11.070;2023-02-26T05:22:13;97370.25;;;-3.24;100.00
16030;BME280;34770;49.272;11.070;2023-02-26T05:24:38;97374.59;;;-3.28;100.00
16030;BME280;34770;49.272;11.070;2023-02-26T05:27:04;97364.78;;;-3.18;100.00
16030;BME280;34770;49.272;11.070;2023-02-26T05:29:29;97370.50;;;-3.15;100.00
16030;BME280;34770;49.272;11.070;2023-02-26T05:31:55;97378.69;;;-3.20;100.00
16030;BME280;34770;49.272;11.070;2023-02-26T05:34:20;97363.44;;;-3.26;100.00
16030;BME280;34770;49.272;11.070;2023-02-26T05:36:46;97384.38;;;-3.11;100.00
16030;BME280;34770;49.272;11.070;2023-02-26T05:39:14;97348.47;;;-3.24;100.00
16030;BME280;34770;49.272;11.070;2023-02-26T05:41:40;97378.88;;;-2.96;100.00
16030;BME280;34770;49.272;11.070;2023-02-26T05:44:05;97383.81;;;-3.08;100.00
16030;BME280;34770;49.272;11.070;2023-02-26T05:46:32;97377.53;;;-3.03;100.00
16030;BME280;34770;49.272;11.070;2023-02-26T05:48:57;97381.66;;;-3.11;100.00
16030;BME280;34770;49.272;11.070;2023-02-26T05:51:23;97389.28;;;-3.13;100.00
16030;BME280;34770;49.272;11.070;2023-02-26T05:53:49;97389.56;;;-3.15;100.00
16030;BME280;34770;49.272;11.070;2023-02-26T05:56:14;97381.94;;;-3.18;100.00
16030;BME280;34770;49.272;11.070;2023-02-26T05:58:39;97392.81;;;-3.08;100.00
16030;BME280;34770;49.272;11.070;2023-02-26T06:01:05;97390.59;;;-3.06;100.00
16030;BME280;34770;49.272;11.070;2023-02-26T06:03:31;97396.06;;;-3.00;100.00
16030;BME280;34770;49.272;11.070;2023-02-26T06:05:56;97403.13;;;-3.05;100.00
16030;BME280;34770;49.272;11.070;2023-02-26T06:08:22;97403.69;;;-3.02;100.00
16030;BME280;34770;49.272;11.070;2023-02-26T06:10:49;97400.94;;;-3.02;100.00
16030;BME280;34770;49.272;11.070;2023-02-26T06:13:15;97417.00;;;-2.91;100.00
16030;BME280;34770;49.272;11.070;2023-02-26T06:15:41;97413.72;;;-2.93;100.00
16030;BME280;34770;49.272;11.070;2023-02-26T06:18:06;97413.44;;;-2.91;100.00
16030;BME280;34770;49.272;11.070;2023-02-26T06:20:33;97422.19;;;-2.99;100.00
16030;BME280;34770;49.272;11.070;2023-02-26T06:23:01;97430.06;;;-2.93;100.00
16030;BME280;34770;49.272;11.070;2023-02-26T06:25:27;97416.19;;;-3.01;100.00
16030;BME280;34770;49.272;11.070;2023-02-26T06:27:52;97423.81;;;-3.03;100.00
16030;BME280;34770;49.272;11.070;2023-02-26T06:30:18;97421.63;;;-2.96;100.00
16030;BME280;34770;49.272;11.070;2023-02-26T06:32:43;97424.34;;;-2.96;100.00
16030;BME280;34770;49.272;11.070;2023-02-26T06:35:09;97428.19;;;-2.92;100.00
16030;BME280;34770;49.272;11.070;2023-02-26T06:37:35;97417.56;;;-2.99;100.00
16030;BME280;34770;49.272;11.070;2023-02-26T06:40:01;97427.06;;;-2.86;100.00
16030;BME280;34770;49.272;11.070;2023-02-26T06:42:26;97448.84;;;-2.81;100.00
16030;BME280;34770;49.272;11.070;2023-02-26T06:44:55;97462.69;;;-2.72;100.00
16030;BME280;34770;49.272;11.070;2023-02-26T06:47:21;97449.59;;;-2.65;100.00
16030;BME280;34770;49.272;11.070;2023-02-26T06:49:47;97451.00;;;-2.83;100.00
16030;BME280;34770;49.272;11.070;2023-02-26T06:52:13;97464.06;;;-2.69;100.00
16030;BME280;34770;49.272;11.070;2023-02-26T06:54:39;97463.78;;;-2.73;100.00
16030;BME280;34770;49.272;11.070;2023-02-26T06:57:04;97471.16;;;-2.74;100.00
16030;BME280;34770;49.272;11.070;2023-02-26T06:59:30;97467.06;;;-2.71;100.00
16030;BME280;34770;49.272;11.070;2023-02-26T07:01:55;97487.72;;;-2.60;100.00
16030;BME280;34770;49.272;11.070;2023-02-26T07:04:21;97495.91;;;-2.60;100.00
16030;BME280;34770;49.272;11.070;2023-02-26T07:06:47;97492.91;;;-2.53;100.00
16030;BME280;34770;49.272;11.070;2023-02-26T07:09:12;97482.28;;;-2.65;100.00
16030;BME280;34770;49.272;11.070;2023-02-26T07:11:38;97507.06;;;-2.46;100.00
16030;BME280;34770;49.272;11.070;2023-02-26T07:14:03;97496.66;;;-2.38;100.00
16030;BME280;34770;49.272;11.070;2023-02-26T07:16:29;97511.94;;;-2.43;100.00
16030;BME280;34770;49.272;11.070;2023-02-26T07:18:54;97504.09;;;-2.54;100.00
16030;BME280;34770;49.272;11.070;2023-02-26T07:21:20;97516.03;;;-2.40;100.00
16030;BME280;34770;49.272;11.070;2023-02-26T07:23:45;97514.59;;;-2.27;100.00
16030;BME280;34770;49.272;11.070;2023-02-26T07:26:11;97516.84;;;-2.39;100.00
16030;BME280;34770;49.272;11.070;2023-02-26T07:28:37;97525.00;;;-2.34;100.00
16030;BME280;34770;49.272;11.070;2023-02-26T07:31:02;97522.44;;;-2.10;100.00
16030;BME280;34770;49.272;11.070;2023-02-26T07:33:28;97518.44;;;-2.23;100.00
16030;BME280;34770;49.272;11.070;2023-02-26T07:35:56;97518.84;;;-1.95;100.00
16030;BME280;34770;49.272;11.070;2023-02-26T07:38:21;97530.69;;;-1.65;100.00
16030;BME280;34770;49.272;11.070;2023-02-26T07:40:47;97532.78;;;-1.52;100.00
16030;BME280;34770;49.272;11.070;2023-02-26T07:43:12;97536.78;;;-1.84;100.00
16030;BME280;34770;49.272;11.070;2023-02-26T07:45:38;97534.03;;;-1.79;100.00
16030;BME280;34770;49.272;11.070;2023-02-26T07:48:03;97528.66;;;-1.94;100.00
16030;BME280;34770;49.272;11.070;2023-02-26T07:50:29;97537.28;;;-1.71;100.00
16030;BME280;34770;49.272;11.070;2023-02-26T07:52:54;97534.41;;;-1.96;100.00
16030;BME280;34770;49.272;11.070;2023-02-26T07:55:20;97553.50;;;-1.96;100.00
16030;BME280;34770;49.272;11.070;2023-02-26T07:57:46;97544.50;;;-2.01;100.00
16030;BME280;34770;49.272;11.070;2023-02-26T08:00:13;97552.34;;;-1.79;100.00
16030;BME280;34770;49.272;11.070;2023-02-26T08:02:39;97560.97;;;-1.62;100.00
16030;BME280;34770;49.272;11.070;2023-02-26T08:05:04;97539.44;;;-1.68;100.00
16030;BME280;34770;49.272;11.070;2023-02-26T08:07:30;97556.59;;;-1.57;100.00
16030;BME280;34770;49.272;11.070;2023-02-26T08:09:56;97552.56;;;-1.70;100.00
16030;BME280;34770;49.272;11.070;2023-02-26T08:12:21;97568.28;;;-1.52;100.00
16030;BME280;34770;49.272;11.070;2023-02-26T08:14:47;97572.84;;;-1.37;100.00
16030;BME280;34770;49.272;11.070;2023-02-26T08:17:13;97559.59;;;-1.19;100.00
16030;BME280;34770;49.272;11.070;2023-02-26T08:19:38;97567.13;;;-1.46;98.42
16030;BME280;34770;49.272;11.070;2023-02-26T08:22:04;97581.41;;;-1.59;99.45
16030;BME280;34770;49.272;11.070;2023-02-26T08:24:29;97577.50;;;-1.42;100.00
16030;BME280;34770;49.272;11.070;2023-02-26T08:26:55;97585.28;;;-1.65;100.00
16030;BME280;34770;49.272;11.070;2023-02-26T08:29:21;97567.75;;;-1.59;100.00
16030;BME280;34770;49.272;11.070;2023-02-26T08:31:46;97591.38;;;-1.34;100.00
16030;BME280;34770;49.272;11.070;2023-02-26T08:34:12;97593.22;;;-1.24;100.00
16030;BME280;34770;49.272;11.070;2023-02-26T08:36:37;97597.94;;;-1.35;100.00
16030;BME280;34770;49.272;11.070;2023-02-26T08:39:04;97603.00;;;-1.13;100.00
16030;BME280;34770;49.272;11.070;2023-02-26T08:41:29;97611.22;;;-1.18;99.28
16030;BME280;34770;49.272;11.070;2023-02-26T08:43:57;97611.47;;;-1.14;100.00
16030;BME280;34770;49.272;11.070;2023-02-26T08:46:23;97607.38;;;-1.11;99.98
16030;BME280;34770;49.272;11.070;2023-02-26T08:48:48;97608.47;;;-1.13;100.00
16030;BME280;34770;49.272;11.070;2023-02-26T08:51:14;97612.28;;;-1.14;100.00
16030;BME280;34770;49.272;11.070;2023-02-26T08:53:39;97626.38;;;-0.96;100.00
16030;BME280;34770;49.272;11.070;2023-02-26T08:56:06;97613.66;;;-0.76;100.00
16030;BME280;34770;49.272;11.070;2023-02-26T08:58:31;97625.06;;;-0.69;100.00
16030;BME280;34770;49.272;11.070;2023-02-26T09:00:57;97628.59;;;-0.63;99.78
16030;BME280;34770;49.272;11.070;2023-02-26T09:03:22;97624.56;;;-0.71;98.08
16030;BME280;34770;49.272;11.070;2023-02-26T09:05:49;97624.94;;;-0.24;99.34
16030;BME280;34770;49.272;11.070;2023-02-26T09:08:15;97635.75;;;-0.09;97.43
16030;BME280;34770;49.272;11.070;2023-02-26T09:10:41;97641.81;;;-0.12;94.80
16030;BME280;34770;49.272;11.070;2023-02-26T09:13:07;97636.22;;;0.47;93.52
16030;BME280;34770;49.272;11.070;2023-02-26T09:15:33;97646.78;;;0.78;89.12
16030;BME280;34770;49.272;11.070;2023-02-26T09:17:59;97630.78;;;0.66;88.08
16030;BME280;34770;49.272;11.070;2023-02-26T09:20:24;97642.75;;;0.51;88.72
16030;BME280;34770;49.272;11.070;2023-02-26T09:22:50;97649.75;;;0.38;88.88
16030;BME280;34770;49.272;11.070;2023-02-26T09:25:15;97655.75;;;0.40;89.75
16030;BME280;34770;49.272;11.070;2023-02-26T09:27:41;97631.81;;;0.27;87.79
16030;BME280;34770;49.272;11.070;2023-02-26T09:30:07;97651.84;;;0.46;85.78
16030;BME280;34770;49.272;11.070;2023-02-26T09:32:33;97651.22;;;0.93;82.68
16030;BME280;34770;49.272;11.070;2023-02-26T09:34:58;97654.88;;;1.07;81.97
16030;BME280;34770;49.272;11.070;2023-02-26T09:37:24;97657.78;;;0.97;81.90
16030;BME280;34770;49.272;11.070;2023-02-26T09:39:49;97664.03;;;0.78;82.12
16030;BME280;34770;49.272;11.070;2023-02-26T09:42:43;97669.31;;;0.94;82.21
16030;BME280;34770;49.272;11.070;2023-02-26T09:48:17;97667.22;;;1.43;78.81
16030;BME280;34770;49.272;11.070;2023-02-26T09:50:47;97660.22;;;1.70;76.06
16030;BME280;34770;49.272;11.070;2023-02-26T09:53:39;97667.19;;;1.62;75.91
16030;BME280;34770;49.272;11.070;2023-02-26T09:56:23;97678.25;;;1.57;76.25
16030;BME280;34770;49.272;11.070;2023-02-26T09:58:50;97686.41;;;1.43;76.42
16030;BME280;34770;49.272;11.070;2023-02-26T10:01:28;97677.25;;;1.15;76.08
16030;BME280;34770;49.272;11.070;2023-02-26T10:12:12;97708.06;;;0.63;76.55
16030;BME280;34770;49.272;11.070;2023-02-26T10:15:08;97710.94;;;0.53;76.75
16030;BME280;34770;49.272;11.070;2023-02-26T10:25:41;97722.81;;;0.67;77.11
16030;BME280;34770;49.272;11.070;2023-02-26T10:30:47;97721.25;;;0.61;77.21
16030;BME280;34770;49.272;11.070;2023-02-26T10:33:28;97727.94;;;0.50;76.34
16030;BME280;34770;49.272;11.070;2023-02-26T10:38:35;97731.78;;;0.49;75.92
16030;BME280;34770;49.272;11.070;2023-02-26T10:41:04;97736.81;;;0.41;77.67
16030;BME280;34770;49.272;11.070;2023-02-26T10:43:58;97740.69;;;0.35;75.11
16030;BME280;34770;49.272;11.070;2023-02-26T10:46:33;97743.25;;;0.51;77.61
16030;BME280;34770;49.272;11.070;2023-02-26T10:51:46;97732.03;;;0.95;73.15
16030;BME280;34770;49.272;11.070;2023-02-26T10:54:20;97727.63;;;1.57;73.07
16030;BME280;34770;49.272;11.070;2023-02-26T10:56:46;97737.41;;;1.63;69.98
16030;BME280;34770;49.272;11.070;2023-02-26T10:59:12;97694.22;;;1.17;69.42
16030;BME280;34770;49.272;11.070;2023-02-26T11:01:38;97742.31;;;1.28;69.78
16030;BME280;34770;49.272;11.070;2023-02-26T11:04:20;97734.00;;;1.52;71.44
16030;BME280;34770;49.272;11.070;2023-02-26T11:06:54;97727.34;;;1.39;70.86
16030;BME280;34770;49.272;11.070;2023-02-26T11:09:36;97741.13;;;1.34;70.81
16030;BME280;34770;49.272;11.070;2023-02-26T11:14:44;97730.44;;;1.14;69.37
16030;BME280;34770;49.272;11.070;2023-02-26T11:17:17;97742.13;;;1.00;69.87
16030;BME280;34770;49.272;11.070;2023-02-26T11:19:56;97743.31;;;0.94;73.44
16030;BME280;34770;49.272;11.070;2023-02-26T11:22:26;97741.97;;;0.91;72.86
16030;BME280;34770;49.272;11.070;2023-02-26T11:24:53;97737.25;;;0.97;71.41
16030;BME280;34770;49.272;11.070;2023-02-26T11:27:26;97741.34;;;1.00;71.62
16030;BME280;34770;49.272;11.070;2023-02-26T11:30:03;97752.56;;;0.98;73.22
16030;BME280;34770;49.272;11.070;2023-02-26T11:32:36;97745.28;;;0.88;72.09
16030;BME280;34770;49.272;11.070;2023-02-26T11:35:07;97738.19;;;0.87;71.85
16030;BME280;34770;49.272;11.070;2023-02-26T11:37:35;97722.69;;;1.40;72.22
16030;BME280;34770;49.272;11.070;2023-02-26T11:40:38;97728.44;;;1.57;71.72
16030;BME280;34770;49.272;11.070;2023-02-26T11:43:07;97730.75;;;2.02;68.76
16030;BME280;34770;49.272;11.070;2023-02-26T11:45:38;97706.03;;;2.63;68.29
16030;BME280;34770;49.272;11.070;2023-02-26T11:48:11;97727.88;;;2.54;68.10
16030;BME280;34770;49.272;11.070;2023-02-26T11:50:44;97713.25;;;2.73;67.94
16030;BME280;34770;49.272;11.070;2023-02-26T11:53:17;97718.75;;;3.01;68.35
16030;BME280;34770;49.272;11.070;2023-02-26T11:55:46;97721.66;;;2.21;64.46
16030;BME280;34770;49.272;11.070;2023-02-26T11:58:18;97719.34;;;2.28;65.71
16030;BME280;34770;49.272;11.070;2023-02-26T12:00:44;97725.56;;;2.76;65.54
16030;BME280;34770;49.272;11.070;2023-02-26T12:03:20;97717.84;;;2.64;63.88
16030;BME280;34770;49.272;11.070;2023-02-26T12:05:46;97711.13;;;2.70;65.44
16030;BME280;34770;49.272;11.070;2023-02-26T12:08:22;97713.03;;;2.55;65.14
16030;BME280;34770;49.272;11.070;2023-02-26T12:14:01;97711.50;;;1.88;63.65
16030;BME280;34770;49.272;11.070;2023-02-26T12:16:42;97715.44;;;1.49;65.12
16030;BME280;34770;49.272;11.070;2023-02-26T12:19:26;97704.16;;;1.51;66.42
16030;BME280;34770;49.272;11.070;2023-02-26T12:30:43;97701.44;;;2.86;61.96
16030;BME280;34770;49.272;11.070;2023-02-26T12:49:41;97720.53;;;1.89;63.21
16030;BME280;34770;49.272;11.070;2023-02-26T12:55:12;97723.59;;;3.18;61.63
16030;BME280;34770;49.272;11.070;2023-02-26T13:07:12;97693.59;;;4.44;52.54
16030;BME280;34770;49.272;11.070;2023-02-26T13:09:58;97696.75;;;4.69;52.74
16030;BME280;34770;49.272;11.070;2023-02-26T13:18:12;97725.66;;;2.84;54.79
16030;BME280;34770;49.272;11.070;2023-02-26T13:20:53;97722.72;;;2.81;55.11
16030;BME280;34770;49.272;11.070;2023-02-26T13:23:23;97720.59;;;2.78;56.86
16030;BME280;34770;49.272;11.070;2023-02-26T13:25:55;97724.44;;;2.49;57.83
16030;BME280;34770;49.272;11.070;2023-02-26T13:31:06;97718.50;;;2.14;60.02
16030;BME280;34770;49.272;11.070;2023-02-26T13:33:33;97725.09;;;2.13;60.22
16030;BME280;34770;49.272;11.070;2023-02-26T13:36:01;97733.31;;;2.74;62.52
16030;BME280;34770;49.272;11.070;2023-02-26T13:38:59;97743.78;;;2.99;59.87
16030;BME280;34770;49.272;11.070;2023-02-26T13:41:56;97748.50;;;3.49;57.93
16030;BME280;34770;49.272;11.070;2023-02-26T13:44:41;97752.19;;;4.04;59.56
16030;BME280;34770;49.272;11.070;2023-02-26T13:53:00;97756.31;;;3.93;54.39
16030;BME280;34770;49.272;11.070;2023-02-26T13:55:43;97760.63;;;3.48;53.85
16030;BME280;34770;49.272;11.070;2023-02-26T14:00:57;97720.25;;;5.15;50.29
16030;BME280;34770;49.272;11.070;2023-02-26T14:05:52;97740.13;;;4.86;52.64
16030;BME280;34770;49.272;11.070;2023-02-26T14:08:26;97751.44;;;3.53;51.07
16030;BME280;34770;49.272;11.070;2023-02-26T14:10:56;97762.53;;;2.97;51.68
16030;BME280;34770;49.272;11.070;2023-02-26T14:13:37;97763.34;;;2.70;54.26
16030;BME280;34770;49.272;11.070;2023-02-26T14:16:11;97759.28;;;2.20;55.13
16030;BME280;34770;49.272;11.070;2023-02-26T14:18:48;97760.44;;;2.33;56.11
16030;BME280;34770;49.272;11.070;2023-02-26T14:23:51;97769.03;;;2.13;57.79
16030;BME280;34770;49.272;11.070;2023-02-26T14:26:21;97773.41;;;2.14;57.74
16030;BME280;34770;49.272;11.070;2023-02-26T14:31:53;97778.19;;;1.89;57.75
16030;BME280;34770;49.272;11.070;2023-02-26T14:34:24;97775.16;;;2.84;56.80
16030;BME280;34770;49.272;11.070;2023-02-26T14:36:57;97773.81;;;5.14;51.51
16030;BME280;34770;49.272;11.070;2023-02-26T14:39:28;97770.97;;;6.42;47.39
16030;BME280;34770;49.272;11.070;2023-02-26T14:41:58;97776.50;;;6.42;47.66
16030;BME280;34770;49.272;11.070;2023-02-26T14:44:28;97756.09;;;4.66;50.39
16030;BME280;34770;49.272;11.070;2023-02-26T14:46:55;97774.91;;;3.50;53.30
16030;BME280;34770;49.272;11.070;2023-02-26T14:49:27;97793.78;;;2.74;55.29
16030;BME280;34770;49.272;11.070;2023-02-26T15:08:15;97799.78;;;4.73;48.75
16030;BME280;34770;49.272;11.070;2023-02-26T15:14:02;97806.81;;;3.38;51.92
16030;BME280;34770;49.272;11.070;2023-02-26T15:16:42;97790.56;;;5.26;48.29
16030;BME280;34770;49.272;11.070;2023-02-26T15:24:40;97813.94;;;2.97;53.58
16030;BME280;34770;49.272;11.070;2023-02-26T15:27:07;97816.88;;;2.26;54.51
16030;BME280;34770;49.272;11.070;2023-02-26T15:29:37;97817.72;;;2.07;56.21
16030;BME280;34770;49.272;11.070;2023-02-26T15:34:46;97838.03;;;1.49;57.10
16030;BME280;34770;49.272;11.070;2023-02-26T15:37:23;97845.53;;;1.62;59.53
16030;BME280;34770;49.272;11.070;2023-02-26T15:39:51;97840.25;;;1.47;59.29